Time;durP1;ratioP1;P1;durP2;ratioP2;P2;SDS_P1;SDS_P2;PMS_P1;PMS_P2;Temp;Humidity;BMP_temperature;BMP_pressure;BME280_temperature;BME280_humidity;BME280_pressure;Samples;Min_cycle;Max_cycle;Signal;HPM_P1;HPM_P2
2022/01/03 00:00:40;;;;;;;2.63;1.50;;;8.40;99.90;;;;;;5084403;28;20691;-57
2022/01/03 00:03:21;;;;;;;1.80;1.55;;;8.50;99.90;;;;;;5084519;28;20655;-57
2022/01/03 00:06:00;;;;;;;3.22;1.30;;;8.60;99.90;;;;;;5078881;28;20689;-57
2022/01/03 00:08:42;;;;;;;2.72;1.20;;;8.50;99.90;;;;;;5076912;27;20564;-57
2022/01/03 00:11:22;;;;;;;2.00;1.27;;;8.50;99.90;;;;;;5142139;27;21197;-57
2022/01/03 00:14:02;;;;;;;2.55;1.33;;;8.50;99.90;;;;;;5080692;27;21271;-57
2022/01/03 00:16:41;;;;;;;2.97;1.58;;;8.60;99.90;;;;;;5074449;28;20707;-57
2022/01/03 00:19:21;;;;;;;1.77;1.20;;;8.60;99.90;;;;;;5078024;28;20703;-57
2022/01/03 00:22:06;;;;;;;1.73;1.27;;;8.70;99.90;;;;;;5082882;28;20628;-57
2022/01/03 00:24:50;;;;;;;1.65;1.00;;;8.70;99.90;;;;;;5082263;28;20555;-57
2022/01/03 00:27:36;;;;;;;3.13;1.40;;;8.70;99.90;;;;;;5104752;27;20545;-57
2022/01/03 00:30:19;;;;;;;2.03;1.50;;;8.80;99.90;;;;;;5080293;28;20723;-57
2022/01/03 00:32:59;;;;;;;2.20;1.50;;;8.90;99.90;;;;;;5136850;27;20566;-57
2022/01/03 00:35:42;;;;;;;2.17;1.42;;;8.80;99.90;;;;;;5082629;28;20664;-57
2022/01/03 00:38:22;;;;;;;1.60;1.23;;;8.70;99.90;;;;;;5144973;27;21093;-57
2022/01/03 00:41:05;;;;;;;2.63;0.90;;;8.70;99.90;;;;;;5143434;27;20546;-57
2022/01/03 00:43:46;;;;;;;3.30;1.40;;;8.70;99.90;;;;;;5104623;27;20673;-57
2022/01/03 00:46:27;;;;;;;1.25;1.00;;;8.70;99.90;;;;;;5083467;28;21276;-57
2022/01/03 00:49:07;;;;;;;2.53;1.40;;;8.60;99.90;;;;;;5080305;28;20579;-57
2022/01/03 00:51:46;;;;;;;2.13;1.30;;;8.70;99.90;;;;;;5133827;27;20554;-57
2022/01/03 00:54:26;;;;;;;2.88;1.52;;;8.70;99.90;;;;;;5143051;27;20661;-57
2022/01/03 00:57:12;;;;;;;2.08;1.60;;;8.80;99.90;;;;;;5083428;28;20687;-57
2022/01/03 01:00:02;;;;;;;2.65;1.17;;;8.80;99.90;;;;;;5084487;28;20679;-57
2022/01/03 01:02:50;;;;;;;2.22;1.00;;;8.80;99.90;;;;;;5081321;27;20559;-57
2022/01/03 01:05:29;;;;;;;1.70;1.30;;;8.80;99.90;;;;;;5075137;28;21230;-57
2022/01/03 01:08:09;;;;;;;3.13;1.40;;;8.80;99.90;;;;;;5083431;28;20731;-57
2022/01/03 01:10:51;;;;;;;2.67;1.50;;;8.90;99.90;;;;;;5137374;27;20681;-57
2022/01/03 01:13:30;;;;;;;4.68;1.63;;;9.00;99.90;;;;;;5084683;27;20539;-57
2022/01/03 01:16:11;;;;;;;1.52;1.23;;;9.00;99.90;;;;;;5123072;27;20548;-57
2022/01/03 01:18:52;;;;;;;1.98;1.20;;;9.00;99.90;;;;;;5146677;27;20688;-57
2022/01/03 01:21:32;;;;;;;1.38;1.00;;;9.00;99.90;;;;;;5100814;27;21061;-57
2022/01/03 01:24:11;;;;;;;1.70;1.60;;;8.90;99.90;;;;;;5149041;27;20550;-57
2022/01/03 01:29:48;;;;;;;1.88;1.40;;;8.70;99.90;;;;;;5104671;27;20570;-57
2022/01/03 01:32:29;;;;;;;1.40;1.27;;;8.70;99.90;;;;;;5105293;27;21070;-57
2022/01/03 01:35:09;;;;;;;2.72;1.73;;;8.70;99.90;;;;;;5103550;27;20538;-57
2022/01/03 01:37:55;;;;;;;4.25;1.60;;;8.80;99.90;;;;;;5084601;28;20548;-57
2022/01/03 01:40:35;;;;;;;1.70;1.10;;;8.80;99.90;;;;;;5078737;27;20567;-57
2022/01/03 01:43:24;;;;;;;2.58;1.88;;;8.80;99.90;;;;;;5076083;27;20548;-57
2022/01/03 01:46:07;;;;;;;2.13;1.40;;;8.80;99.90;;;;;;5137793;27;20669;-57
2022/01/03 01:48:49;;;;;;;2.67;1.27;;;8.80;99.90;;;;;;5151270;27;20562;-57
2022/01/03 01:51:34;;;;;;;2.55;1.40;;;8.70;99.90;;;;;;5104952;27;20567;-57
2022/01/03 01:54:16;;;;;;;2.40;1.30;;;8.70;99.90;;;;;;5145711;27;20935;-58
2022/01/03 01:57:09;;;;;;;1.20;1.10;;;8.70;99.90;;;;;;5125597;27;20667;-57
2022/01/03 02:00:04;;;;;;;2.15;1.75;;;8.60;99.90;;;;;;5082427;27;20559;-57
2022/01/03 02:03:02;;;;;;;2.30;1.90;;;8.60;99.90;;;;;;5134760;27;20669;-57
2022/01/03 02:05:43;;;;;;;1.55;1.40;;;8.60;99.90;;;;;;5083912;28;20695;-57
2022/01/03 02:08:28;;;;;;;2.95;1.45;;;8.60;99.90;;;;;;5084498;28;20688;-57
2022/01/03 02:11:17;;;;;;;1.95;1.42;;;8.70;99.90;;;;;;5145925;27;20883;-57
2022/01/03 02:13:58;;;;;;;4.07;1.77;;;8.80;99.90;;;;;;5084074;28;20680;-57
2022/01/03 02:16:38;;;;;;;1.45;1.35;;;8.90;99.90;;;;;;5104234;27;20537;-57
2022/01/03 02:19:19;;;;;;;1.52;1.15;;;8.80;99.90;;;;;;5104761;27;20546;-57
2022/01/03 02:21:58;;;;;;;1.42;1.25;;;8.80;99.90;;;;;;5085116;27;20924;-57
2022/01/03 02:24:38;;;;;;;1.98;1.27;;;8.90;99.90;;;;;;5083242;27;20559;-57
2022/01/03 02:27:18;;;;;;;2.38;1.10;;;9.00;99.90;;;;;;5105285;27;20541;-57
2022/01/03 02:29:57;;;;;;;1.38;0.95;;;9.00;99.90;;;;;;5084396;28;20676;-57
2022/01/03 02:32:37;;;;;;;2.75;1.23;;;8.90;99.90;;;;;;5105024;27;20912;-57
2022/01/03 02:35:17;;;;;;;4.00;1.50;;;8.80;99.90;;;;;;5144593;27;21207;-57
2022/01/03 02:37:57;;;;;;;3.45;1.55;;;8.80;99.90;;;;;;5125507;27;20536;-57
2022/01/03 02:40:37;;;;;;;3.42;0.73;;;6.90;99.90;;;;;;5145666;27;20668;-58
2022/01/03 02:43:17;;;;;;;1.13;0.30;;;6.20;99.90;;;;;;5105307;27;20665;-58
2022/01/03 02:45:57;;;;;;;1.23;0.63;;;6.20;99.90;;;;;;5083666;28;20691;-58
2022/01/03 02:48:36;;;;;;;0.43;0.43;;;6.20;99.90;;;;;;5084492;27;20556;-58
2022/01/03 02:51:16;;;;;;;1.85;0.20;;;6.10;99.90;;;;;;5084760;28;20667;-58
2022/01/03 02:53:56;;;;;;;2.67;0.60;;;6.10;99.90;;;;;;5125312;27;20540;-58
2022/01/03 02:56:51;;;;;;;0.30;0.20;;;6.10;99.90;;;;;;5083968;28;20553;-58
2022/01/03 02:59:32;;;;;;;0.40;0.30;;;6.10;99.90;;;;;;5069072;27;20549;-58
2022/01/03 03:02:12;;;;;;;0.40;0.30;;;6.10;99.90;;;;;;5084726;27;20548;-58
2022/01/03 03:04:56;;;;;;;0.63;0.40;;;6.10;99.90;;;;;;5083445;27;20679;-58
2022/01/03 03:07:37;;;;;;;2.17;0.32;;;6.20;99.90;;;;;;5084491;28;20663;-58
2022/01/03 03:10:20;;;;;;;0.85;0.55;;;6.10;99.90;;;;;;5084596;27;20540;-58
2022/01/03 03:13:00;;;;;;;1.52;0.82;;;6.20;99.90;;;;;;5146676;27;20838;-59
2022/01/03 03:15:40;;;;;;;0.43;0.20;;;6.20;99.90;;;;;;5083549;27;20552;-58
2022/01/03 03:18:21;;;;;;;0.90;0.20;;;6.20;99.90;;;;;;5125600;27;20564;-58
2022/01/03 03:21:00;;;;;;;0.10;0.00;;;6.10;99.90;;;;;;5084610;27;20532;-58
2022/01/03 03:23:40;;;;;;;0.20;0.20;;;6.10;99.90;;;;;;5084457;28;20680;-59
2022/01/03 03:26:19;;;;;;;0.22;0.22;;;6.20;99.90;;;;;;5083352;27;20547;-58
2022/01/03 03:28:59;;;;;;;0.15;0.05;;;6.20;99.90;;;;;;5125269;27;21092;-58
2022/01/03 03:31:39;;;;;;;0.73;0.50;;;6.20;99.90;;;;;;5084584;27;20920;-59
2022/01/03 03:34:21;;;;;;;0.40;0.30;;;6.20;99.90;;;;;;5084144;28;20660;-58
2022/01/03 03:37:00;;;;;;;1.45;0.55;;;6.20;99.90;;;;;;5084348;28;21024;-58
2022/01/03 03:39:40;;;;;;;0.57;0.30;;;6.20;99.90;;;;;;5084425;28;20655;-59
2022/01/03 03:42:20;;;;;;;0.77;0.30;;;6.20;99.90;;;;;;5104760;27;20541;-59
2022/01/03 03:45:00;;;;;;;0.50;0.50;;;6.10;99.90;;;;;;5103988;27;20541;-59
2022/01/03 03:47:40;;;;;;;0.70;0.63;;;6.10;99.90;;;;;;5085078;28;20539;-59
2022/01/03 03:50:20;;;;;;;0.60;0.40;;;6.10;99.90;;;;;;5104966;27;20554;-59
2022/01/03 03:52:59;;;;;;;0.80;0.55;;;6.10;99.90;;;;;;5105053;27;20611;-58
2022/01/03 03:55:39;;;;;;;1.10;0.98;;;6.10;99.90;;;;;;5083511;28;20687;-59
2022/01/03 03:58:19;;;;;;;1.50;0.60;;;6.10;99.90;;;;;;5084898;28;20676;-58
2022/01/03 04:00:59;;;;;;;0.77;0.60;;;6.00;99.90;;;;;;5085469;28;20596;-58
2022/01/03 04:03:38;;;;;;;1.00;0.73;;;6.00;99.90;;;;;;5084389;27;20569;-59
2022/01/03 04:06:19;;;;;;;0.55;0.55;;;6.00;99.90;;;;;;5084110;28;20679;-59
2022/01/03 04:08:58;;;;;;;1.75;0.90;;;6.00;99.90;;;;;;5084031;28;20668;-59
2022/01/03 04:11:38;;;;;;;0.68;0.68;;;6.00;99.90;;;;;;5104749;27;20556;-58
2022/01/03 04:14:18;;;;;;;0.73;0.73;;;6.00;99.90;;;;;;5145865;27;20538;-59
2022/01/03 04:16:58;;;;;;;1.70;0.60;;;6.00;99.90;;;;;;5085245;28;20687;-59
2022/01/03 04:19:40;;;;;;;1.00;0.30;;;6.00;99.90;;;;;;5083940;28;20683;-58
2022/01/03 04:22:19;;;;;;;1.63;0.55;;;5.90;99.90;;;;;;5085703;28;20994;-59
2022/01/03 04:24:59;;;;;;;0.35;0.35;;;5.90;99.90;;;;;;5145625;27;20669;-59
2022/01/03 04:27:39;;;;;;;0.45;0.30;;;5.80;99.90;;;;;;5085163;27;20577;-59
2022/01/03 04:30:18;;;;;;;0.43;0.40;;;5.80;99.90;;;;;;5084251;28;20672;-58
2022/01/03 04:32:58;;;;;;;0.65;0.43;;;5.70;99.90;;;;;;5125823;27;20656;-58
2022/01/03 04:35:39;;;;;;;1.52;0.40;;;5.60;99.90;;;;;;5145773;27;20658;-58
2022/01/03 04:38:18;;;;;;;0.95;0.55;;;5.60;99.90;;;;;;5105384;27;20682;-58
2022/01/03 04:40:58;;;;;;;0.82;0.52;;;5.50;99.90;;;;;;5146692;27;20763;-58
2022/01/03 04:43:39;;;;;;;0.85;0.80;;;5.40;99.90;;;;;;5084506;28;20550;-59
2022/01/03 04:46:19;;;;;;;1.13;0.57;;;5.50;99.90;;;;;;5083715;27;20573;-59
2022/01/03 04:48:59;;;;;;;0.52;0.52;;;5.50;99.90;;;;;;5084230;28;21025;-58
2022/01/03 04:51:39;;;;;;;0.98;0.50;;;5.40;99.90;;;;;;5125886;27;20571;-59
2022/01/03 04:54:19;;;;;;;0.93;0.60;;;5.50;99.90;;;;;;5145703;27;20665;-59
2022/01/03 04:56:59;;;;;;;0.82;0.57;;;5.40;99.90;;;;;;5145747;27;20665;-59
2022/01/03 04:59:38;;;;;;;0.80;0.43;;;5.50;99.90;;;;;;5085186;28;20680;-59
2022/01/03 05:02:18;;;;;;;1.73;0.80;;;5.50;99.90;;;;;;5084804;28;21039;-59
2022/01/03 05:04:58;;;;;;;1.23;0.50;;;5.50;99.90;;;;;;5083797;28;20671;-59
2022/01/03 05:07:38;;;;;;;0.90;0.40;;;5.50;99.90;;;;;;5084512;27;20563;-59
2022/01/03 05:10:17;;;;;;;2.13;0.55;;;5.60;99.90;;;;;;5084675;28;20672;-59
2022/01/03 05:12:57;;;;;;;4.28;0.70;;;5.60;99.90;;;;;;5084608;28;20672;-58
2022/01/03 05:15:38;;;;;;;1.45;0.32;;;5.70;99.90;;;;;;5083580;27;20531;-59
2022/01/03 05:18:17;;;;;;;2.20;0.57;;;5.70;99.90;;;;;;5125445;27;20679;-59
2022/01/03 05:20:57;;;;;;;0.65;0.47;;;5.70;99.90;;;;;;5146170;27;20546;-58
2022/01/03 05:23:36;;;;;;;1.13;0.45;;;5.60;99.90;;;;;;5084223;27;20543;-59
2022/01/03 05:26:16;;;;;;;1.00;0.40;;;5.60;99.90;;;;;;5083142;27;20531;-58
2022/01/03 05:28:56;;;;;;;1.63;0.77;;;5.60;99.90;;;;;;5084411;27;20589;-58
2022/01/03 05:31:36;;;;;;;1.35;1.00;;;5.70;99.90;;;;;;5104969;27;20545;-59
2022/01/03 05:34:16;;;;;;;0.40;0.32;;;5.60;99.90;;;;;;5084134;27;20532;-59
2022/01/03 05:36:56;;;;;;;0.65;0.30;;;5.60;99.90;;;;;;5084352;27;20535;-59
2022/01/03 05:39:36;;;;;;;1.40;0.57;;;5.50;99.90;;;;;;5084769;28;20695;-59
2022/01/03 05:42:15;;;;;;;1.05;0.57;;;5.40;99.90;;;;;;5084836;27;20580;-58
2022/01/03 05:44:55;;;;;;;1.55;0.60;;;5.40;99.90;;;;;;5145703;27;21076;-59
2022/01/03 05:47:35;;;;;;;1.98;0.73;;;5.40;99.90;;;;;;5146294;27;20804;-58
2022/01/03 05:50:15;;;;;;;2.95;0.63;;;5.60;99.90;;;;;;5146718;27;20534;-59
2022/01/03 05:52:55;;;;;;;1.35;0.40;;;5.70;99.90;;;;;;5146620;27;20527;-58
2022/01/03 05:55:34;;;;;;;2.17;0.82;;;5.80;99.90;;;;;;5083212;27;20544;-58
2022/01/03 05:58:14;;;;;;;1.85;0.40;;;5.70;99.90;;;;;;5085307;28;21169;-59
2022/01/03 06:00:54;;;;;;;1.65;0.75;;;5.70;99.90;;;;;;5105163;27;20572;-58
2022/01/03 06:03:37;;;;;;;0.93;0.50;;;5.80;99.90;;;;;;5084791;28;20664;-59
2022/01/03 06:06:30;;;;;;;2.65;0.77;;;5.70;99.90;;;;;;5084057;27;20561;-59
2022/01/03 06:09:10;;;;;;;2.40;0.70;;;5.70;99.90;;;;;;5105119;27;20577;-59
2022/01/03 06:11:50;;;;;;;2.80;1.23;;;5.60;99.90;;;;;;5084691;27;20536;-59
2022/01/03 06:14:29;;;;;;;2.92;1.02;;;5.60;99.90;;;;;;5124747;27;20532;-58
2022/01/03 06:17:09;;;;;;;2.17;0.68;;;5.70;99.90;;;;;;5084594;28;20672;-58
2022/01/03 06:19:50;;;;;;;1.42;0.65;;;5.60;99.90;;;;;;5104837;27;20693;-59
2022/01/03 06:22:29;;;;;;;1.38;0.93;;;5.70;99.90;;;;;;5146257;27;20550;-59
2022/01/03 06:25:10;;;;;;;3.40;0.90;;;5.70;99.90;;;;;;5144724;27;20676;-58
2022/01/03 06:27:48;;;;;;;0.90;0.85;;;5.70;99.90;;;;;;5105165;27;20550;-59
2022/01/03 06:30:28;;;;;;;1.00;0.82;;;5.90;99.90;;;;;;5165728;27;20678;-59
2022/01/03 06:33:10;;;;;;;3.05;0.93;;;5.90;99.90;;;;;;5105559;27;20765;-59
2022/01/03 06:35:49;;;;;;;1.80;0.70;;;6.00;99.90;;;;;;5103047;27;20538;-59
2022/01/03 06:38:31;;;;;;;3.53;1.13;;;6.00;99.90;;;;;;5074777;27;20560;-58
2022/01/03 06:41:11;;;;;;;1.92;0.85;;;6.10;99.90;;;;;;5083694;28;20692;-59
2022/01/03 06:43:51;;;;;;;1.30;0.60;;;6.20;99.90;;;;;;5139512;27;21062;-58
2022/01/03 06:46:30;;;;;;;1.90;0.60;;;6.30;99.90;;;;;;5083060;27;20547;-58
2022/01/03 06:49:10;;;;;;;1.90;0.90;;;6.40;99.90;;;;;;5082994;28;20990;-59
2022/01/03 06:51:50;;;;;;;2.47;0.60;;;6.40;99.90;;;;;;5105280;27;20862;-58
2022/01/03 06:54:32;;;;;;;3.47;1.38;;;6.40;99.90;;;;;;5083538;28;20567;-59
2022/01/03 06:57:12;;;;;;;1.08;0.55;;;6.20;99.90;;;;;;5125103;27;20554;-59
2022/01/03 06:59:51;;;;;;;1.83;0.70;;;5.90;99.90;;;;;;5146230;27;20677;-59
2022/01/03 07:02:31;;;;;;;2.35;1.35;;;5.80;99.90;;;;;;5084745;27;20564;-59
2022/01/03 07:05:12;;;;;;;1.23;0.82;;;5.80;99.90;;;;;;5082025;28;21028;-59
2022/01/03 07:07:52;;;;;;;1.95;1.50;;;5.90;99.90;;;;;;5124704;27;20536;-59
2022/01/03 07:10:32;;;;;;;2.20;1.27;;;5.90;99.90;;;;;;5124299;27;20948;-59
2022/01/03 07:13:12;;;;;;;2.30;1.75;;;5.90;99.90;;;;;;5103331;27;21020;-58
2022/01/03 07:18:59;;;;;;;1.92;0.90;;;6.20;99.90;;;;;;5079695;28;20687;-58
2022/01/03 07:21:38;;;;;;;2.40;2.20;;;6.30;99.90;;;;;;5083632;27;20539;-59
2022/01/03 07:24:18;;;;;;;2.47;1.00;;;6.30;99.90;;;;;;5145530;27;20542;-58
2022/01/03 07:27:01;;;;;;;1.13;0.77;;;6.40;99.90;;;;;;5083054;28;20680;-59
2022/01/03 07:29:40;;;;;;;6.50;6.07;;;6.40;99.90;;;;;;5157357;27;21026;-58
2022/01/03 07:32:20;;;;;;;2.03;1.65;;;6.40;99.90;;;;;;5084667;27;21096;-59
2022/01/03 07:34:59;;;;;;;0.90;0.60;;;6.50;99.90;;;;;;5083816;28;20679;-59
2022/01/03 07:37:39;;;;;;;1.42;0.98;;;6.50;99.90;;;;;;5084650;28;20687;-58
2022/01/03 07:40:19;;;;;;;1.40;1.00;;;6.50;99.90;;;;;;5084456;28;20672;-58
2022/01/03 07:42:59;;;;;;;1.48;0.52;;;6.50;99.90;;;;;;5084694;27;20527;-59
2022/01/03 07:45:38;;;;;;;2.17;0.60;;;6.50;99.90;;;;;;5083311;27;21029;-58
2022/01/03 07:48:18;;;;;;;0.40;0.35;;;6.50;99.90;;;;;;5084594;28;20563;-59
2022/01/03 07:50:58;;;;;;;1.10;0.45;;;6.50;99.90;;;;;;5125093;27;20540;-58
2022/01/03 07:53:38;;;;;;;3.20;0.77;;;6.40;99.90;;;;;;5125102;27;21141;-58
2022/01/03 07:56:19;;;;;;;1.40;1.30;;;6.40;99.90;;;;;;5144656;27;21127;-58
2022/01/03 07:58:58;;;;;;;2.33;1.10;;;6.40;99.90;;;;;;5077878;28;21231;-58
2022/01/03 08:01:40;;;;;;;0.30;0.20;;;6.40;99.90;;;;;;5067904;28;20685;-59
2022/01/03 08:04:20;;;;;;;1.58;0.82;;;6.40;99.90;;;;;;5099541;27;20593;-58
2022/01/03 08:07:00;;;;;;;1.15;1.00;;;6.40;99.90;;;;;;5071719;28;20743;-58
2022/01/03 08:09:40;;;;;;;1.83;1.40;;;6.40;99.90;;;;;;5124943;27;20559;-58
2022/01/03 08:12:20;;;;;;;0.80;0.80;;;6.40;99.90;;;;;;5082096;28;20692;-58
2022/01/03 08:15:00;;;;;;;1.23;0.68;;;6.50;99.90;;;;;;5102470;27;21218;-59
2022/01/03 08:17:40;;;;;;;0.93;0.50;;;6.50;99.90;;;;;;5142607;27;20657;-59
2022/01/03 08:20:20;;;;;;;1.80;1.15;;;6.40;99.90;;;;;;5122795;27;20544;-59
2022/01/03 08:22:59;;;;;;;1.17;0.52;;;6.20;99.90;;;;;;5102282;27;20569;-58
2022/01/03 08:25:39;;;;;;;0.50;0.50;;;6.00;99.90;;;;;;5080881;27;20539;-58
2022/01/03 08:28:19;;;;;;;1.23;0.50;;;5.80;99.90;;;;;;5098838;27;21212;-58
2022/01/03 08:30:59;;;;;;;0.52;0.40;;;5.80;99.90;;;;;;5144461;27;20665;-59
2022/01/03 08:33:39;;;;;;;1.48;0.70;;;5.90;99.90;;;;;;5100940;27;20561;-58
2022/01/03 08:36:18;;;;;;;3.42;0.70;;;6.10;99.90;;;;;;5077848;28;20711;-59
2022/01/03 08:38:58;;;;;;;1.65;1.40;;;6.30;99.90;;;;;;5081489;28;20695;-59
2022/01/03 08:41:38;;;;;;;1.98;1.00;;;6.40;99.90;;;;;;5142486;27;21204;-59
2022/01/03 08:44:18;;;;;;;0.77;0.60;;;6.50;99.90;;;;;;5143169;27;20661;-59
2022/01/03 08:46:58;;;;;;;0.73;0.70;;;6.60;99.90;;;;;;5144015;27;20686;-58
2022/01/03 08:49:37;;;;;;;1.08;0.93;;;6.70;99.90;;;;;;5091591;27;20720;-58
2022/01/03 08:52:17;;;;;;;1.50;1.33;;;6.80;99.90;;;;;;5063478;27;20690;-58
2022/01/03 08:54:57;;;;;;;1.48;1.15;;;6.90;99.90;;;;;;5140279;27;21195;-59
2022/01/03 08:57:38;;;;;;;1.00;0.80;;;6.90;99.90;;;;;;5082601;27;21088;-59
2022/01/03 09:00:18;;;;;;;1.25;0.77;;;6.80;99.90;;;;;;5102580;27;20669;-58
2022/01/03 09:02:58;;;;;;;1.63;1.15;;;6.80;99.90;;;;;;5103837;27;20595;-58
2022/01/03 09:05:38;;;;;;;1.02;0.73;;;6.90;99.90;;;;;;5082250;28;20683;-59
2022/01/03 09:08:18;;;;;;;2.53;0.77;;;7.00;99.90;;;;;;5083122;28;20671;-58
2022/01/03 09:10:58;;;;;;;1.88;0.60;;;7.00;99.90;;;;;;5077888;27;20571;-59
2022/01/03 09:13:41;;;;;;;2.30;0.63;;;7.10;99.90;;;;;;5078600;28;20571;-58
2022/01/03 09:16:21;;;;;;;1.30;1.08;;;7.20;99.90;;;;;;5081010;28;20679;-58
2022/01/03 09:19:00;;;;;;;1.25;0.52;;;7.20;99.90;;;;;;5124034;27;21427;-59
2022/01/03 09:21:40;;;;;;;2.50;0.70;;;7.20;99.90;;;;;;5144595;27;20645;-58
2022/01/03 09:24:27;;;;;;;2.42;0.60;;;7.20;99.90;;;;;;5122883;27;20843;-59
2022/01/03 09:30:11;;;;;;;1.92;0.70;;;7.20;99.90;;;;;;5076495;27;20568;-58
2022/01/03 09:32:52;;;;;;;5.65;1.70;;;7.30;99.90;;;;;;5155142;27;20541;-58
2022/01/03 09:35:31;;;;;;;2.28;0.90;;;7.30;99.90;;;;;;5080246;28;20684;-58
2022/01/03 09:38:12;;;;;;;1.25;0.80;;;7.40;99.90;;;;;;5101164;27;20596;-58
2022/01/03 09:40:53;;;;;;;1.65;0.70;;;7.30;99.90;;;;;;5146054;27;20708;-58
2022/01/03 09:43:39;;;;;;;0.68;0.68;;;7.30;99.90;;;;;;5104868;27;20538;-59
2022/01/03 09:46:22;;;;;;;1.02;0.30;;;7.30;99.90;;;;;;5083554;28;20695;-58
2022/01/03 09:49:03;;;;;;;1.13;0.70;;;7.20;99.90;;;;;;5081280;28;20559;-58
2022/01/03 09:51:45;;;;;;;1.38;0.60;;;7.20;99.90;;;;;;5123562;27;20951;-59
2022/01/03 09:54:25;;;;;;;0.65;0.50;;;7.30;99.90;;;;;;5098521;27;21028;-59
2022/01/03 09:57:06;;;;;;;2.38;0.95;;;7.30;99.90;;;;;;5079963;27;20572;-58
2022/01/03 09:59:46;;;;;;;2.83;0.60;;;7.40;99.90;;;;;;5143766;27;20558;-58
2022/01/03 10:02:27;;;;;;;1.98;1.02;;;7.50;99.90;;;;;;5117839;27;20544;-59
2022/01/03 10:05:09;;;;;;;7.50;5.22;;;7.60;99.90;;;;;;5120113;27;20540;-58
2022/01/03 10:07:49;;;;;;;2.47;1.73;;;7.60;99.90;;;;;;5135767;27;20962;-58
2022/01/03 10:10:28;;;;;;;0.68;0.68;;;7.50;99.90;;;;;;5082463;28;20695;-58
2022/01/03 10:13:08;;;;;;;1.38;0.70;;;7.30;99.90;;;;;;5124305;27;20691;-58
2022/01/03 10:15:48;;;;;;;2.40;2.20;;;7.20;99.90;;;;;;5083380;28;21196;-58
2022/01/03 10:18:28;;;;;;;3.78;2.65;;;7.10;99.90;;;;;;5082348;27;20551;-58
2022/01/03 10:21:08;;;;;;;3.03;2.30;;;7.10;99.90;;;;;;5082516;27;20563;-58
2022/01/03 10:23:55;;;;;;;2.20;1.58;;;7.20;99.90;;;;;;5120201;27;20547;-59
2022/01/03 10:26:37;;;;;;;2.03;0.90;;;7.30;99.90;;;;;;5144356;27;20946;-58
2022/01/03 10:29:19;;;;;;;1.95;1.80;;;7.40;99.90;;;;;;5091774;27;20593;-59
2022/01/03 10:32:00;;;;;;;5.38;4.03;;;7.70;99.90;;;;;;5084914;28;21020;-59
2022/01/03 10:34:40;;;;;;;5.60;3.67;;;7.90;99.90;;;;;;5060996;27;21013;-59
2022/01/03 10:37:19;;;;;;;3.47;2.47;;;8.00;99.90;;;;;;5058304;27;20560;-58
2022/01/03 10:39:59;;;;;;;3.08;1.65;;;8.20;99.90;;;;;;5085784;27;20617;-58
2022/01/03 10:42:39;;;;;;;5.07;4.25;;;8.20;99.90;;;;;;5145142;27;20661;-58
2022/01/03 10:45:30;;;;;;;0.75;0.75;;;8.20;99.90;;;;;;5083699;27;21157;-58
2022/01/03 10:48:28;;;;;;;1.25;0.82;;;8.10;99.90;;;;;;5146272;27;20554;-58
2022/01/03 10:51:07;;;;;;;1.73;0.65;;;8.20;99.90;;;;;;5139075;27;20703;-58
2022/01/03 10:53:47;;;;;;;3.75;0.70;;;8.20;99.90;;;;;;5068022;28;21002;-58
2022/01/03 10:56:31;;;;;;;1.27;0.60;;;8.20;99.90;;;;;;5102857;27;21139;-58
2022/01/03 10:59:25;;;;;;;2.42;0.90;;;8.20;99.90;;;;;;5113501;27;20682;-59
2022/01/03 11:02:06;;;;;;;2.63;0.80;;;8.20;99.90;;;;;;5085105;27;20532;-59
2022/01/03 11:04:51;;;;;;;1.52;1.05;;;8.10;99.90;;;;;;5084331;27;20561;-59
2022/01/03 11:10:47;;;;;;;2.80;1.40;;;8.00;99.90;;;;;;5125766;27;20544;-58
2022/01/03 11:13:27;;;;;;;1.92;1.27;;;8.00;99.90;;;;;;5083384;28;20551;-58
2022/01/03 11:16:09;;;;;;;2.95;1.35;;;8.00;99.90;;;;;;5083850;27;20539;-58
2022/01/03 11:18:49;;;;;;;2.65;1.50;;;8.00;99.90;;;;;;5084942;27;21033;-58
2022/01/03 11:21:30;;;;;;;2.05;1.48;;;8.10;99.90;;;;;;5084778;28;20543;-58
2022/01/03 11:24:12;;;;;;;5.15;2.15;;;8.20;99.90;;;;;;5084295;27;20669;-58
2022/01/03 11:26:51;;;;;;;3.00;1.45;;;8.20;99.90;;;;;;5125185;27;20658;-59
2022/01/03 11:29:31;;;;;;;4.28;1.00;;;8.20;99.90;;;;;;5157477;27;20548;-59
2022/01/03 11:32:11;;;;;;;3.35;1.20;;;8.10;99.90;;;;;;5084971;28;20699;-58
2022/01/03 11:34:52;;;;;;;1.42;1.00;;;8.10;99.90;;;;;;5083964;27;20551;-59
2022/01/03 11:37:34;;;;;;;2.83;1.00;;;8.20;99.90;;;;;;5145867;27;20661;-58
2022/01/03 11:40:16;;;;;;;3.40;1.30;;;8.40;99.90;;;;;;5125693;27;20683;-58
2022/01/03 11:42:57;;;;;;;3.55;1.40;;;8.60;99.90;;;;;;5125488;27;21006;-58
2022/01/03 11:45:37;;;;;;;4.32;1.00;;;8.70;99.90;;;;;;5083716;27;20549;-59
2022/01/03 11:48:17;;;;;;;3.10;1.52;;;8.80;99.90;;;;;;5084385;27;20700;-58
2022/01/03 11:51:02;;;;;;;3.03;1.58;;;8.90;99.90;;;;;;5104837;27;21051;-57
2022/01/03 11:53:47;;;;;;;2.88;1.15;;;9.00;99.90;;;;;;5095301;27;20583;-58
2022/01/03 11:56:29;;;;;;;2.78;1.40;;;9.00;99.90;;;;;;5082611;28;20659;-59
2022/01/03 11:59:21;;;;;;;4.43;1.40;;;8.70;99.90;;;;;;5084223;28;20551;-58
2022/01/03 12:05:01;;;;;;;4.47;1.70;;;8.40;99.90;;;;;;5104362;27;20952;-58
2022/01/03 12:07:57;;;;;;;5.93;2.55;;;8.10;99.90;;;;;;5084069;27;20560;-58
2022/01/03 12:10:46;;;;;;;3.78;1.50;;;7.90;99.90;;;;;;5146332;27;20530;-58
2022/01/03 12:13:51;;;;;;;4.72;1.98;;;7.80;99.90;;;;;;5084316;28;20659;-58
2022/01/03 12:16:45;;;;;;;4.82;2.17;;;7.60;99.90;;;;;;5083791;28;21020;-58
2022/01/03 12:19:33;;;;;;;3.35;2.20;;;7.60;99.90;;;;;;5166793;27;20566;-58
2022/01/03 12:22:14;;;;;;;4.38;2.45;;;7.60;99.90;;;;;;5084294;28;20708;-58
2022/01/03 12:25:00;;;;;;;1.73;1.30;;;7.60;99.90;;;;;;5084079;27;21112;-58
2022/01/03 12:27:41;;;;;;;4.95;1.90;;;7.60;99.90;;;;;;5084340;27;20569;-60
2022/01/03 12:30:25;;;;;;;2.10;1.90;;;7.50;99.90;;;;;;5084380;28;20660;-58
2022/01/03 12:33:22;;;;;;;2.22;1.30;;;7.50;99.90;;;;;;5084810;27;20687;-58
2022/01/03 12:36:18;;;;;;;2.85;1.40;;;7.50;99.90;;;;;;5083499;27;20672;-59
2022/01/03 12:39:07;;;;;;;3.55;1.70;;;7.40;99.90;;;;;;5084317;27;20557;-59
2022/01/03 12:41:49;;;;;;;4.45;1.25;;;7.30;99.90;;;;;;5084198;28;21221;-59
2022/01/03 12:47:23;;;;;;;2.70;0.70;;;7.30;99.90;;;;;;5083472;27;20531;-59
2022/01/03 12:50:25;;;;;;;1.05;0.60;;;7.10;99.90;;;;;;5145559;27;20554;-57
2022/01/03 12:53:07;;;;;;;0.50;0.50;;;7.10;99.90;;;;;;5082571;27;20547;-58
2022/01/03 12:55:48;;;;;;;1.92;1.83;;;7.10;99.90;;;;;;5080930;27;20457;-60
2022/01/03 12:58:44;;;;;;;2.38;0.98;;;7.20;99.90;;;;;;5074756;28;20603;-59
2022/01/03 13:01:31;;;;;;;3.95;2.22;;;7.30;99.90;;;;;;5101336;27;21087;-60
2022/01/03 13:04:25;;;;;;;9.63;7.35;;;7.30;99.90;;;;;;5082292;28;20601;-60
2022/01/03 13:07:05;;;;;;;3.47;2.05;;;7.40;99.90;;;;;;5082873;28;20667;-60
2022/01/03 13:09:44;;;;;;;6.53;2.08;;;7.50;99.90;;;;;;5084631;28;21044;-60
2022/01/03 13:12:24;;;;;;;5.28;2.08;;;7.40;99.90;;;;;;5146538;27;20542;-60
2022/01/03 13:15:05;;;;;;;2.33;1.70;;;7.30;99.90;;;;;;5083830;28;20656;-60
2022/01/03 13:17:44;;;;;;;6.65;1.85;;;7.40;99.90;;;;;;5084442;28;20667;-61
2022/01/03 13:20:24;;;;;;;4.10;1.55;;;7.50;99.90;;;;;;5084873;27;20536;-60
2022/01/03 13:23:04;;;;;;;4.30;1.40;;;7.60;99.90;;;;;;5104849;27;21106;-60
2022/01/03 13:25:44;;;;;;;2.45;1.40;;;7.70;99.90;;;;;;5083798;27;20910;-60
2022/01/03 13:28:23;;;;;;;4.63;1.80;;;7.60;99.90;;;;;;5084476;27;20548;-61
2022/01/03 13:31:04;;;;;;;7.97;1.83;;;7.60;99.90;;;;;;5084818;27;20532;-60
2022/01/03 13:33:44;;;;;;;4.15;1.80;;;7.60;99.90;;;;;;5084653;28;21208;-60
2022/01/03 13:36:32;;;;;;;4.53;2.20;;;7.60;99.90;;;;;;5104147;27;20662;-60
2022/01/03 13:39:14;;;;;;;4.45;1.63;;;7.60;99.90;;;;;;5125222;27;20547;-60
2022/01/03 13:41:55;;;;;;;5.05;2.53;;;7.60;99.90;;;;;;5084966;28;20683;-60
2022/01/03 13:44:48;;;;;;;7.82;2.50;;;7.50;99.90;;;;;;5083394;27;20549;-60
2022/01/03 13:50:28;;;;;;;5.63;2.80;;;7.50;99.90;;;;;;5146027;27;20665;-61
2022/01/03 13:53:09;;;;;;;6.80;3.75;;;7.50;99.90;;;;;;5146162;27;20543;-60
2022/01/03 13:55:53;;;;;;;7.93;2.83;;;7.50;99.90;;;;;;5084111;27;20547;-59
2022/01/03 13:58:39;;;;;;;11.25;5.05;;;7.60;99.90;;;;;;5085324;27;20556;-60
2022/01/03 14:01:20;;;;;;;6.85;3.95;;;7.60;99.90;;;;;;5084313;28;20656;-61
2022/01/03 14:04:00;;;;;;;7.28;2.53;;;7.60;99.90;;;;;;5146355;27;20903;-60
2022/01/03 14:06:41;;;;;;;9.68;4.72;;;7.60;99.90;;;;;;5083822;28;21047;-60
2022/01/03 14:09:20;;;;;;;7.18;4.13;;;7.70;99.90;;;;;;5105252;27;20674;-60
2022/01/03 14:12:10;;;;;;;5.10;2.83;;;7.70;99.90;;;;;;5083061;27;20554;-61
2022/01/03 14:14:54;;;;;;;5.13;1.80;;;7.80;99.90;;;;;;5082901;28;20664;-61
2022/01/03 14:17:34;;;;;;;3.95;2.20;;;7.70;99.90;;;;;;5081815;27;21103;-60
2022/01/03 14:20:14;;;;;;;6.15;1.48;;;7.80;99.90;;;;;;5103966;27;20698;-61
2022/01/03 14:22:53;;;;;;;3.13;1.40;;;7.70;99.90;;;;;;5116527;27;20544;-60
2022/01/03 14:25:33;;;;;;;3.42;1.25;;;7.70;99.90;;;;;;5084094;27;20539;-61
2022/01/03 14:28:13;;;;;;;3.08;1.85;;;7.70;99.90;;;;;;5084190;28;20696;-61
2022/01/03 14:30:54;;;;;;;5.00;2.60;;;7.60;99.90;;;;;;5083593;27;21049;-60
2022/01/03 14:33:34;;;;;;;5.97;3.15;;;7.60;99.90;;;;;;5103848;27;20542;-61